createdAt,value
2022-10-05T00:02:16.149Z,99540.31
2022-10-05T00:04:44.661Z,99535.94
2022-10-05T00:07:16.229Z,99538.72
2022-10-05T00:09:49.171Z,99542.25
2022-10-05T00:12:19.314Z,99535.53
2022-10-05T00:14:49.644Z,99533.06
2022-10-05T00:17:21.046Z,99532.19
2022-10-05T00:19:52.194Z,99532.50
2022-10-05T00:22:23.736Z,99525.69
2022-10-05T00:24:59.882Z,99524.19
2022-10-05T00:27:33.868Z,99527.34
2022-10-05T00:30:08.863Z,99519.22
2022-10-05T00:32:37.261Z,99515.38
2022-10-05T00:35:06.358Z,99514.66
2022-10-05T00:37:34.889Z,99508.44
2022-10-05T00:40:11.599Z,99499.38
2022-10-05T00:42:49.919Z,99506.28
2022-10-05T00:45:27.234Z,99505.13
2022-10-05T00:48:04.916Z,99510.56
2022-10-05T00:50:49.381Z,99500.69
2022-10-05T00:53:31.929Z,99502.06
2022-10-05T00:56:08.328Z,99512.66
2022-10-05T00:58:53.833Z,99518.75
2022-10-05T01:01:32.548Z,99517.19
2022-10-05T01:04:06.938Z,99516.41
2022-10-05T01:06:46.794Z,99520.13
2022-10-05T01:09:23.391Z,99519.22
2022-10-05T01:11:57.366Z,99520.13
2022-10-05T01:14:33.993Z,99522.22
2022-10-05T01:17:09.035Z,99523.72
2022-10-05T01:20:11.119Z,99509.91
2022-10-05T01:22:58.857Z,99515.59
2022-10-05T01:25:32.710Z,99507.03
2022-10-05T01:28:07.581Z,99506.25
2022-10-05T01:30:43.003Z,99497.31
2022-10-05T01:33:20.098Z,99491.38
2022-10-05T01:35:56.923Z,99492.19
2022-10-05T01:38:46.131Z,99482.69
2022-10-05T01:41:28.126Z,99483.00
2022-10-05T01:44:04.141Z,99482.75
2022-10-05T01:46:39.383Z,99486.44
2022-10-05T01:49:21.088Z,99481.50
2022-10-05T01:52:02.188Z,99481.91
2022-10-05T01:54:40.659Z,99481.13
2022-10-05T01:57:20.813Z,99472.25
2022-10-05T02:00:03.342Z,99469.00
2022-10-05T02:02:46.992Z,99467.38
2022-10-05T02:05:22.117Z,99470.31
2022-10-05T02:07:55.554Z,99472.09
2022-10-05T02:10:28.179Z,99473.81
2022-10-05T02:13:01.824Z,99465.28
2022-10-05T02:15:41.557Z,99480.50
2022-10-05T02:18:14.392Z,99469.38
2022-10-05T02:20:44.753Z,99471.97
2022-10-05T02:23:18.888Z,99471.13
2022-10-05T02:25:50.621Z,99464.63
2022-10-05T02:28:24.567Z,99458.41
2022-10-05T02:30:59.592Z,99465.22
2022-10-05T02:33:29.670Z,99465.16
2022-10-05T02:36:03.325Z,99466.84
2022-10-05T02:38:40.845Z,99460.13
2022-10-05T02:41:19.527Z,99462.25
2022-10-05T02:43:58.363Z,99459.50
2022-10-05T02:46:36.726Z,99454.03
2022-10-05T02:49:20.078Z,99453.09
2022-10-05T02:51:55.548Z,99450.53
2022-10-05T02:54:40.053Z,99443.34
2022-10-05T02:57:17.333Z,99446.75
2022-10-05T02:59:53.998Z,99450.69
2022-10-05T03:02:27.688Z,99442.69
2022-10-05T03:05:03.692Z,99430.34
2022-10-05T03:07:40.552Z,99435.44
2022-10-05T03:10:15.826Z,99431.06
2022-10-05T03:12:53.031Z,99428.31
2022-10-05T03:16:05.220Z,99431.78
2022-10-05T03:18:48.946Z,99419.50
2022-10-05T03:21:33.498Z,99417.97
2022-10-05T03:24:21.931Z,99414.06
2022-10-05T03:27:01.893Z,99408.88
2022-10-05T03:29:40.394Z,99401.50
2022-10-05T03:32:18.744Z,99405.78
2022-10-05T03:34:54.429Z,99395.59
2022-10-05T03:37:29.087Z,99392.53
2022-10-05T03:40:04.225Z,99391.72
2022-10-05T03:42:40.743Z,99380.75
2022-10-05T03:45:19.886Z,99381.56
2022-10-05T03:48:01.117Z,99379.91
2022-10-05T03:50:43.180Z,99368.66
2022-10-05T03:53:18.445Z,99362.50
2022-10-05T03:55:52.918Z,99370.66
2022-10-05T03:58:26.735Z,99364.16
2022-10-05T04:01:00.921Z,99364.91
2022-10-05T04:03:35.105Z,99356.38
2022-10-05T04:06:11.206Z,99350.75
2022-10-05T04:08:48.380Z,99359.56
2022-10-05T04:11:26.378Z,99353.09
2022-10-05T04:14:00.399Z,99354.47
2022-10-05T04:16:33.130Z,99354.66
2022-10-05T04:19:06.685Z,99355.72
2022-10-05T04:21:41.518Z,99358.75
2022-10-05T04:24:15.696Z,99351.78
2022-10-05T04:26:51.792Z,99347.31
2022-10-05T04:29:32.389Z,99341.41
2022-10-05T04:32:26.885Z,99358.25
2022-10-05T04:35:09.204Z,99346.69
2022-10-05T04:37:51.498Z,99349.72
2022-10-05T04:40:37.067Z,99350.34
2022-10-05T04:43:16.189Z,99347.66
2022-10-05T04:46:09.844Z,99354.78
2022-10-05T04:49:03.399Z,99361.59
2022-10-05T04:51:41.279Z,99348.81
2022-10-05T04:54:23.882Z,99362.63
2022-10-05T04:56:59.454Z,99354.44
2022-10-05T04:59:48.430Z,99355.47
2022-10-05T05:02:24.300Z,99362.22
2022-10-05T05:05:15.624Z,99366.34
2022-10-05T05:07:50.406Z,99359.69
2022-10-05T05:10:47.486Z,99363.34
2022-10-05T05:13:37.202Z,99363.34
2022-10-05T05:16:11.456Z,99373.81
2022-10-05T05:18:58.762Z,99366.00
2022-10-05T05:21:40.088Z,99357.00
2022-10-05T05:24:20.896Z,99362.53
2022-10-05T05:27:05.101Z,99366.75
2022-10-05T05:29:44.683Z,99357.47
2022-10-05T05:32:23.984Z,99361.88
2022-10-05T05:35:14.352Z,99361.56
2022-10-05T05:37:52.195Z,99359.84
2022-10-05T05:40:27.504Z,99351.59
2022-10-05T05:43:00.561Z,99351.84
2022-10-05T05:45:40.662Z,99349.28
2022-10-05T05:48:17.769Z,99346.63
2022-10-05T05:50:56.237Z,99362.88
2022-10-05T05:53:30.760Z,99357.63
2022-10-05T05:56:05.168Z,99354.19
2022-10-05T05:58:39.843Z,99356.69
2022-10-05T06:01:31.789Z,99360.53
2022-10-05T06:04:06.162Z,99361.97
2022-10-05T06:06:39.995Z,99356.53
2022-10-05T06:09:19.015Z,99359.00
2022-10-05T06:12:11.965Z,99355.09
2022-10-05T06:14:48.514Z,99362.69
2022-10-05T06:17:20.639Z,99352.88
2022-10-05T06:19:54.790Z,99350.69
2022-10-05T06:22:27.813Z,99359.97
2022-10-05T06:25:16.045Z,99358.38
2022-10-05T06:28:02.929Z,99368.50
2022-10-05T06:30:45.017Z,99357.09
2022-10-05T06:33:24.329Z,99352.53
2022-10-05T06:36:07.879Z,99359.41
2022-10-05T06:38:59.618Z,99354.53
2022-10-05T06:41:38.746Z,99358.78
2022-10-05T06:44:13.598Z,99351.47
2022-10-05T06:47:05.455Z,99349.56
2022-10-05T06:49:59.879Z,99367.56
2022-10-05T06:52:58.713Z,99354.47
2022-10-05T06:55:37.894Z,99356.03
2022-10-05T06:58:20.203Z,99346.13
2022-10-05T07:00:53.629Z,99353.00
2022-10-05T07:03:32.023Z,99353.53
2022-10-05T07:06:11.770Z,99356.91
2022-10-05T07:09:02.249Z,99359.19
2022-10-05T07:11:58.354Z,99355.28
2022-10-05T07:14:44.289Z,99348.66
2022-10-05T07:17:26.433Z,99351.91
2022-10-05T07:20:06.237Z,99343.09
2022-10-05T07:23:11.207Z,99337.97
2022-10-05T07:25:47.239Z,99345.59
2022-10-05T07:28:24.852Z,99353.31
2022-10-05T07:30:57.382Z,99338.13
2022-10-05T07:33:33.470Z,99347.56
2022-10-05T07:36:28.684Z,99348.84
2022-10-05T07:39:03.826Z,99341.28
2022-10-05T07:41:38.402Z,99344.06
2022-10-05T07:44:14.055Z,99352.03
2022-10-05T07:46:54.449Z,99345.47
2022-10-05T07:49:33.872Z,99351.09
2022-10-05T07:52:12.164Z,99347.06
2022-10-05T07:54:48.557Z,99341.19
2022-10-05T07:57:25.150Z,99341.91
2022-10-05T07:59:59.185Z,99350.97
2022-10-05T08:02:33.202Z,99338.94
2022-10-05T08:05:05.130Z,99348.28
2022-10-05T08:07:36.964Z,99348.00
2022-10-05T08:10:19.726Z,99344.59
2022-10-05T08:13:01.209Z,99345.41
2022-10-05T08:15:35.226Z,99347.81
2022-10-05T08:18:10.452Z,99356.91
2022-10-05T08:20:47.017Z,99354.72
2022-10-05T08:23:25.823Z,99350.31
2022-10-05T08:26:03.633Z,99354.31
2022-10-05T08:28:39.669Z,99362.78
2022-10-05T08:31:17.112Z,99352.34
2022-10-05T08:33:58.629Z,99354.84
2022-10-05T08:36:44.772Z,99355.44
2022-10-05T08:39:19.814Z,99362.31
2022-10-05T08:42:29.734Z,99351.31
2022-10-05T08:45:20.394Z,99345.16
2022-10-05T08:48:16.021Z,99359.16
2022-10-05T08:51:05.671Z,99351.19
2022-10-05T08:53:58.525Z,99355.97
2022-10-05T08:56:38.979Z,99357.94
2022-10-05T08:59:28.650Z,99357.88
2022-10-05T09:02:29.223Z,99344.97
2022-10-05T09:05:24.523Z,99340.00
2022-10-05T09:08:24.077Z,99346.44
2022-10-05T09:11:03.711Z,99350.56
2022-10-05T09:14:29.115Z,99345.31
2022-10-05T09:17:28.213Z,99343.59
2022-10-05T09:20:11.299Z,99333.28
2022-10-05T09:22:59.671Z,99345.75
2022-10-05T09:25:57.208Z,99349.28
2022-10-05T09:28:32.067Z,99336.22
2022-10-05T09:31:26.213Z,99333.34
2022-10-05T09:34:40.164Z,99343.41
2022-10-05T09:37:47.450Z,99333.28
2022-10-05T09:40:52.643Z,99330.28
2022-10-05T09:43:54.116Z,99334.84
2022-10-05T09:46:56.553Z,99317.09
2022-10-05T09:50:05.381Z,99330.03
2022-10-05T09:52:54.618Z,99335.75
2022-10-05T09:56:09.385Z,99318.59
2022-10-05T09:59:06.236Z,99315.34
2022-10-05T10:01:49.120Z,99314.94
2022-10-05T10:04:33.851Z,99312.31
2022-10-05T10:07:39.442Z,99313.97
2022-10-05T10:10:32.366Z,99319.06
2022-10-05T10:13:23.049Z,99303.47
2022-10-05T10:16:23.501Z,99310.78
2022-10-05T10:19:20.867Z,99292.78
2022-10-05T10:22:31.277Z,99296.63
2022-10-05T10:25:19.155Z,99298.97
2022-10-05T10:28:07.759Z,99289.63
2022-10-05T10:31:07.006Z,99298.91
2022-10-05T10:34:03.033Z,99288.06
2022-10-05T10:37:07.751Z,99285.16
2022-10-05T10:39:54.253Z,99273.22
2022-10-05T10:42:50.114Z,99275.19
2022-10-05T10:45:29.504Z,99281.97
2022-10-05T10:48:11.818Z,99271.38
2022-10-05T10:51:05.700Z,99277.50
2022-10-05T10:54:07.604Z,99281.13
2022-10-05T10:56:49.868Z,99277.66
2022-10-05T10:59:57.014Z,99283.41
2022-10-05T11:02:48.710Z,99274.44
2022-10-05T11:05:32.627Z,99278.56
2022-10-05T11:08:34.398Z,99262.47
2022-10-05T11:11:43.193Z,99263.94
2022-10-05T11:14:38.097Z,99245.59
2022-10-05T11:17:26.115Z,99250.00
2022-10-05T11:20:09.126Z,99255.13
2022-10-05T11:22:52.487Z,99245.25
2022-10-05T11:25:44.216Z,99236.00
2022-10-05T11:28:44.479Z,99230.56
2022-10-05T11:31:37.363Z,99231.66
2022-10-05T11:34:38.919Z,99225.22
2022-10-05T11:37:45.649Z,99201.66
2022-10-05T11:40:43.249Z,99201.41
2022-10-05T11:43:38.839Z,99207.34
2022-10-05T11:46:15.603Z,99200.28
2022-10-05T11:49:06.833Z,99187.44
2022-10-05T11:51:46.801Z,99181.88
2022-10-05T11:54:58.412Z,99168.69
2022-10-05T11:57:32.709Z,99165.00
2022-10-05T12:00:12.807Z,99163.19
2022-10-05T12:02:55.295Z,99151.75
2022-10-05T12:05:29.459Z,99146.81
2022-10-05T12:08:16.273Z,99129.41
2022-10-05T12:10:52.760Z,99137.50
2022-10-05T12:13:30.055Z,99134.44
2022-10-05T12:16:03.697Z,99124.69
2022-10-05T12:18:47.927Z,99121.81
2022-10-05T12:21:28.782Z,99118.94
2022-10-05T12:24:06.450Z,99116.50
2022-10-05T12:26:40.507Z,99115.69
2022-10-05T12:29:18.041Z,99113.38
2022-10-05T12:31:56.568Z,99117.97
2022-10-05T12:34:37.994Z,99105.53
2022-10-05T12:37:19.895Z,99105.78
2022-10-05T12:39:54.946Z,99100.97
2022-10-05T12:42:32.263Z,99085.44
2022-10-05T12:45:19.318Z,99092.41
2022-10-05T12:48:16.254Z,99096.06
2022-10-05T12:50:56.156Z,99084.59
2022-10-05T12:53:37.051Z,99088.22
2022-10-05T12:56:12.292Z,99090.47
2022-10-05T12:58:57.742Z,99086.91
2022-10-05T13:01:34.135Z,99083.75
2022-10-05T13:04:14.805Z,99071.31
2022-10-05T13:06:52.779Z,99076.63
2022-10-05T13:09:29.666Z,99067.72
2022-10-05T13:12:09.439Z,99076.47
2022-10-05T13:14:53.624Z,99072.53
2022-10-05T13:17:32.382Z,99069.59
2022-10-05T13:20:21.519Z,99071.72
2022-10-05T13:22:57.327Z,99072.84
2022-10-05T13:25:33.931Z,99055.38
2022-10-05T13:28:19.556Z,99065.47
2022-10-05T13:31:02.158Z,99053.69
2022-10-05T13:33:48.253Z,99054.53
2022-10-05T13:36:29.983Z,99048.94
2022-10-05T13:39:05.895Z,99050.34
2022-10-05T13:41:45.955Z,99053.28
2022-10-05T13:44:24.944Z,99049.63
2022-10-05T13:47:02.183Z,99048.53
2022-10-05T13:49:39.783Z,99049.56
2022-10-05T13:52:26.398Z,99049.44
2022-10-05T13:55:02.059Z,99055.28
2022-10-05T13:57:45.097Z,99050.28
2022-10-05T14:00:22.601Z,99049.63
2022-10-05T14:03:01.921Z,99048.75
2022-10-05T14:05:31.810Z,99036.56
2022-10-05T14:08:17.825Z,99038.28
2022-10-05T14:10:53.751Z,99039.69
2022-10-05T14:13:26.588Z,99042.91
2022-10-05T14:16:18.906Z,99053.09
2022-10-05T14:18:56.770Z,99057.78
2022-10-05T14:21:27.184Z,99058.81
2022-10-05T14:23:57.130Z,99069.19
2022-10-05T14:26:36.411Z,99080.88
2022-10-05T14:29:18.095Z,99069.78
2022-10-05T14:31:54.454Z,99069.31
2022-10-05T14:34:36.787Z,99071.84
2022-10-05T14:37:18.201Z,99067.47
2022-10-05T14:39:48.635Z,99072.09
2022-10-05T14:42:21.191Z,99079.91
2022-10-05T14:45:00.317Z,99085.28
2022-10-05T14:47:50.240Z,99085.56
2022-10-05T14:50:29.561Z,99086.16
2022-10-05T14:53:10.192Z,99083.81
2022-10-05T14:56:02.402Z,99096.78
2022-10-05T14:58:56.239Z,99089.53
2022-10-05T15:01:28.482Z,99103.53
2022-10-05T15:04:09.161Z,99105.78
2022-10-05T15:06:40.668Z,99121.41
2022-10-05T15:09:42.512Z,99120.19
2022-10-05T15:12:14.994Z,99123.47
2022-10-05T15:14:47.824Z,99132.56
2022-10-05T15:17:27.046Z,99124.56
2022-10-05T15:20:05.201Z,99135.47
2022-10-05T15:22:42.942Z,99136.69
2022-10-05T15:25:17.014Z,99138.53
2022-10-05T15:27:58.063Z,99157.09
2022-10-05T15:30:26.549Z,99167.72
2022-10-05T15:33:08.825Z,99170.16
2022-10-05T15:36:02.137Z,99178.63
2022-10-05T15:38:36.618Z,99176.59
2022-10-05T15:41:12.497Z,99180.47
2022-10-05T15:43:52.607Z,99185.72
2022-10-05T15:46:34.648Z,99182.41
2022-10-05T15:49:24.821Z,99189.50
2022-10-05T15:52:05.564Z,99200.63
2022-10-05T15:55:02.308Z,99221.53
2022-10-05T15:57:43.203Z,99206.31
2022-10-05T16:00:18.658Z,99229.31
2022-10-05T16:02:52.976Z,99223.00
2022-10-05T16:05:50.252Z,99229.75
2022-10-05T16:08:54.420Z,99226.81
2022-10-05T16:11:40.420Z,99225.59
2022-10-05T16:14:34.373Z,99236.09
2022-10-05T16:17:20.498Z,99239.38
2022-10-05T16:20:00.826Z,99244.19
2022-10-05T16:22:43.576Z,99254.03
2022-10-05T16:25:22.143Z,99257.84
2022-10-05T16:28:08.310Z,99259.72
2022-10-05T16:30:52.934Z,99269.13
2022-10-05T16:33:29.228Z,99275.28
2022-10-05T16:36:18.002Z,99289.72
2022-10-05T16:38:54.863Z,99290.50
2022-10-05T16:41:38.713Z,99291.09
2022-10-05T16:44:23.668Z,99293.09
2022-10-05T16:46:58.471Z,99295.06
2022-10-05T16:49:40.347Z,99307.25
2022-10-05T16:52:19.125Z,99310.97
2022-10-05T16:54:53.319Z,99312.28
2022-10-05T16:57:36.923Z,99328.06
2022-10-05T17:00:20.093Z,99325.50
2022-10-05T17:03:16.420Z,99337.47
2022-10-05T17:05:59.740Z,99337.97
2022-10-05T17:09:02.659Z,99346.50
2022-10-05T17:11:43.424Z,99361.41
2022-10-05T17:14:31.570Z,99360.88
2022-10-05T17:17:27.804Z,99363.22
2022-10-05T17:20:06.971Z,99370.00
2022-10-05T17:22:40.428Z,99367.25
2022-10-05T17:25:18.245Z,99367.75
2022-10-05T17:27:54.772Z,99362.50
2022-10-05T17:30:48.380Z,99375.69
2022-10-05T17:33:23.206Z,99376.47
2022-10-05T17:36:18.457Z,99386.78
2022-10-05T17:38:50.267Z,99382.41
2022-10-05T17:41:22.086Z,99394.78
2022-10-05T17:44:20.450Z,99409.16
2022-10-05T17:46:51.385Z,99395.69
2022-10-05T17:49:39.748Z,99391.47
2022-10-05T17:52:44.025Z,99400.38
2022-10-05T17:55:38.252Z,99406.50
2022-10-05T17:58:40.863Z,99398.75
2022-10-05T18:01:16.953Z,99414.69
2022-10-05T18:03:49.880Z,99409.34
2022-10-05T18:06:44.577Z,99402.34
2022-10-05T18:09:20.835Z,99399.47
2022-10-05T18:12:25.513Z,99409.44
2022-10-05T18:15:00.958Z,99408.59
2022-10-05T18:17:39.841Z,99425.59
2022-10-05T18:20:17.962Z,99410.50
2022-10-05T18:22:47.241Z,99404.94
2022-10-05T18:25:30.090Z,99405.09
2022-10-05T18:28:13.670Z,99407.63
2022-10-05T18:31:04.491Z,99404.41
2022-10-05T18:33:55.691Z,99414.81
2022-10-05T18:36:42.898Z,99409.56
2022-10-05T18:39:22.397Z,99427.22
2022-10-05T18:42:02.595Z,99419.22
2022-10-05T18:44:40.380Z,99412.34
2022-10-05T18:47:16.356Z,99416.38
2022-10-05T18:49:58.293Z,99415.78
2022-10-05T18:52:46.051Z,99412.16
2022-10-05T18:55:20.039Z,99418.97
2022-10-05T18:58:21.254Z,99427.03
2022-10-05T19:01:04.280Z,99423.16
2022-10-05T19:03:42.302Z,99423.53
2022-10-05T19:06:23.140Z,99421.53
2022-10-05T19:09:04.447Z,99432.19
2022-10-05T19:11:40.812Z,99430.16
2022-10-05T19:14:21.998Z,99442.53
2022-10-05T19:17:01.262Z,99444.13
2022-10-05T19:19:43.856Z,99453.97
2022-10-05T19:22:20.128Z,99459.16
2022-10-05T19:25:05.234Z,99469.84
2022-10-05T19:27:46.417Z,99463.56
2022-10-05T19:30:27.154Z,99465.50
2022-10-05T19:33:24.029Z,99460.59
2022-10-05T19:36:03.811Z,99458.53
2022-10-05T19:38:42.310Z,99464.72
2022-10-05T19:41:17.201Z,99466.63
2022-10-05T19:44:03.421Z,99458.59
2022-10-05T19:46:47.895Z,99471.81
2022-10-05T19:49:37.193Z,99473.50
2022-10-05T19:52:13.070Z,99466.25
2022-10-05T19:54:43.339Z,99482.31
2022-10-05T19:57:18.065Z,99483.16
2022-10-05T19:59:47.661Z,99477.84
2022-10-05T20:02:17.697Z,99478.94
2022-10-05T20:04:49.344Z,99480.44
2022-10-05T20:07:21.611Z,99495.03
2022-10-05T20:09:53.323Z,99486.06
2022-10-05T20:12:23.606Z,99506.72
2022-10-05T20:15:26.948Z,99498.56
2022-10-05T20:18:12.774Z,99503.09
2022-10-05T20:20:45.731Z,99513.19
2022-10-05T20:23:24.954Z,99515.00
2022-10-05T20:26:10.730Z,99506.03
2022-10-05T20:28:40.511Z,99499.38
2022-10-05T20:31:09.342Z,99518.59
2022-10-05T20:33:38.893Z,99510.06
2022-10-05T20:36:08.575Z,99517.91
2022-10-05T20:38:40.904Z,99520.56
2022-10-05T20:41:10.218Z,99530.28
2022-10-05T20:43:40.390Z,99523.25
2022-10-05T20:46:08.735Z,99528.41
2022-10-05T20:48:37.089Z,99539.41
2022-10-05T20:51:05.793Z,99543.34
2022-10-05T20:53:34.516Z,99536.13
2022-10-05T20:56:04.790Z,99540.50
2022-10-05T20:58:33.151Z,99533.03
2022-10-05T21:01:25.593Z,99552.47
2022-10-05T21:03:54.566Z,99563.41
2022-10-05T21:06:26.219Z,99567.41
2022-10-05T21:08:54.905Z,99564.13
2022-10-05T21:11:23.375Z,99562.81
2022-10-05T21:13:53.661Z,99578.16
2022-10-05T21:16:24.724Z,99564.16
2022-10-05T21:18:53.557Z,99564.16
2022-10-05T21:21:21.904Z,99576.53
2022-10-05T21:23:51.137Z,99579.97
2022-10-05T21:26:19.527Z,99579.06
2022-10-05T21:28:47.952Z,99588.53
2022-10-05T21:31:16.431Z,99636.81
2022-10-05T21:33:46.185Z,99653.00
2022-10-05T21:36:14.987Z,99661.94
2022-10-05T21:38:43.555Z,99680.97
2022-10-05T21:41:11.890Z,99680.09
2022-10-05T21:43:40.481Z,99686.03
2022-10-05T21:46:09.693Z,99705.47
2022-10-05T21:48:40.467Z,99711.38
2022-10-05T21:51:13.338Z,99718.22
2022-10-05T21:53:47.074Z,99709.75
2022-10-05T21:56:18.866Z,99709.91
2022-10-05T21:58:48.256Z,99703.25
2022-10-05T22:01:22.365Z,99717.34
2022-10-05T22:03:51.068Z,99716.34
2022-10-05T22:06:20.953Z,99710.03
2022-10-05T22:08:49.322Z,99713.38
2022-10-05T22:11:19.259Z,99721.44
2022-10-05T22:13:49.920Z,99719.44
2022-10-05T22:16:21.654Z,99718.69
2022-10-05T22:18:50.737Z,99723.09
2022-10-05T22:21:21.017Z,99726.66
2022-10-05T22:23:50.786Z,99737.34
2022-10-05T22:26:22.097Z,99741.53
2022-10-05T22:28:54.929Z,99752.88
2022-10-05T22:31:23.936Z,99751.94
2022-10-05T22:33:52.633Z,99766.22
2022-10-05T22:36:21.720Z,99752.34
2022-10-05T22:38:51.490Z,99774.53
2022-10-05T22:41:20.455Z,99771.88
2022-10-05T22:43:50.665Z,99766.66
2022-10-05T22:46:20.146Z,99778.28
2022-10-05T22:48:48.548Z,99779.72
2022-10-05T22:51:17.018Z,99784.28
2022-10-05T22:53:45.364Z,99789.66
2022-10-05T22:56:15.257Z,99803.75
2022-10-05T22:58:44.565Z,99808.97
2022-10-05T23:01:15.271Z,99812.22
2022-10-05T23:03:44.698Z,99810.69
2022-10-05T23:06:15.000Z,99812.34
2022-10-05T23:08:43.875Z,99820.16
2022-10-05T23:11:14.346Z,99824.81
2022-10-05T23:13:44.421Z,99830.94
2022-10-05T23:16:14.701Z,99845.59
2022-10-05T23:18:43.768Z,99855.00
2022-10-05T23:21:12.618Z,99878.50
2022-10-05T23:23:43.249Z,99890.41
2022-10-05T23:26:12.572Z,99875.03
2022-10-05T23:28:43.092Z,99887.69
2022-10-05T23:31:14.548Z,99880.34
2022-10-05T23:33:42.996Z,99894.16
2022-10-05T23:36:14.488Z,99893.25
2022-10-05T23:38:43.517Z,99891.66
2022-10-05T23:41:12.234Z,99897.00
2022-10-05T23:43:40.991Z,99902.28
2022-10-05T23:46:10.523Z,99896.13
2022-10-05T23:48:40.688Z,99902.03
2022-10-05T23:51:11.073Z,99915.34
2022-10-05T23:53:39.453Z,99909.22
2022-10-05T23:56:08.063Z,99920.47
2022-10-05T23:58:36.469Z,99920.31
